sensor_id;sensor_type;location;lat;lon;timestamp;pressure;altitude;pressure_sealevel;temperature;humidity
31044;BME280;17710;52.520;13.352;2023-08-21T00:00:13;101819.28;;;27.96;61.74
31044;BME280;17710;52.520;13.352;2023-08-21T00:02:39;101813.72;;;27.98;61.83
31044;BME280;17710;52.520;13.352;2023-08-21T00:05:07;101824.94;;;27.64;62.77
31044;BME280;17710;52.520;13.352;2023-08-21T00:07:34;101812.09;;;27.66;62.60
31044;BME280;17710;52.520;13.352;2023-08-21T00:10:00;101812.56;;;27.81;62.24
31044;BME280;17710;52.520;13.352;2023-08-21T00:12:27;101810.63;;;27.53;63.37
31044;BME280;17710;52.520;13.352;2023-08-21T00:14:54;101810.41;;;27.45;62.66
31044;BME280;17710;52.520;13.352;2023-08-21T00:17:21;101810.97;;;27.38;63.00
31044;BME280;17710;52.520;13.352;2023-08-21T00:19:47;101813.44;;;27.42;62.26
31044;BME280;17710;52.520;13.352;2023-08-21T00:22:13;101811.22;;;27.56;61.26
31044;BME280;17710;52.520;13.352;2023-08-21T00:24:40;101812.00;;;27.47;61.81
31044;BME280;17710;52.520;13.352;2023-08-21T00:27:06;101807.22;;;27.60;61.46
31044;BME280;17710;52.520;13.352;2023-08-21T00:29:32;101815.59;;;27.48;62.21
31044;BME280;17710;52.520;13.352;2023-08-21T00:32:00;101816.56;;;27.47;61.94
31044;BME280;17710;52.520;13.352;2023-08-21T00:34:26;101808.66;;;27.55;61.30
31044;BME280;17710;52.520;13.352;2023-08-21T00:36:53;101809.50;;;27.65;60.89
31044;BME280;17710;52.520;13.352;2023-08-21T00:39:19;101809.25;;;27.68;60.78
31044;BME280;17710;52.520;13.352;2023-08-21T00:41:46;101810.09;;;27.68;60.57
31044;BME280;17710;52.520;13.352;2023-08-21T00:44:12;101824.19;;;27.53;61.52
31044;BME280;17710;52.520;13.352;2023-08-21T00:46:39;101813.72;;;27.48;61.82
31044;BME280;17710;52.520;13.352;2023-08-21T00:49:07;101822.22;;;27.55;62.03
31044;BME280;17710;52.520;13.352;2023-08-21T00:51:33;101827.84;;;27.42;62.74
31044;BME280;17710;52.520;13.352;2023-08-21T00:54:00;101828.44;;;27.46;62.77
31044;BME280;17710;52.520;13.352;2023-08-21T00:56:26;101812.81;;;27.28;63.12
31044;BME280;17710;52.520;13.352;2023-08-21T00:58:53;101815.78;;;27.25;63.38
31044;BME280;17710;52.520;13.352;2023-08-21T01:01:22;101822.38;;;27.32;63.54
31044;BME280;17710;52.520;13.352;2023-08-21T01:03:49;101817.56;;;27.46;63.28
31044;BME280;17710;52.520;13.352;2023-08-21T01:06:18;101821.81;;;27.38;63.36
31044;BME280;17710;52.520;13.352;2023-08-21T01:08:52;101817.38;;;27.28;63.66
31044;BME280;17710;52.520;13.352;2023-08-21T01:11:23;101813.84;;;27.07;64.68
31044;BME280;17710;52.520;13.352;2023-08-21T01:13:55;101821.75;;;27.19;64.94
31044;BME280;17710;52.520;13.352;2023-08-21T01:16:25;101819.41;;;27.05;65.60
31044;BME280;17710;52.520;13.352;2023-08-21T01:18:53;101816.78;;;27.24;64.92
31044;BME280;17710;52.520;13.352;2023-08-21T01:21:23;101811.00;;;26.87;66.39
31044;BME280;17710;52.520;13.352;2023-08-21T01:23:52;101813.91;;;27.16;65.55
31044;BME280;17710;52.520;13.352;2023-08-21T01:26:18;101809.59;;;27.14;65.65
31044;BME280;17710;52.520;13.352;2023-08-21T01:28:46;101810.34;;;27.25;64.92
31044;BME280;17710;52.520;13.352;2023-08-21T01:31:21;101810.81;;;27.30;64.76
31044;BME280;17710;52.520;13.352;2023-08-21T01:33:53;101814.91;;;27.25;64.96
31044;BME280;17710;52.520;13.352;2023-08-21T01:36:21;101813.81;;;26.97;66.43
31044;BME280;17710;52.520;13.352;2023-08-21T01:38:50;101807.94;;;27.22;65.69
31044;BME280;17710;52.520;13.352;2023-08-21T01:41:17;101807.81;;;27.33;65.08
31044;BME280;17710;52.520;13.352;2023-08-21T01:43:44;101795.97;;;27.34;65.10
31044;BME280;17710;52.520;13.352;2023-08-21T01:46:10;101787.66;;;27.26;65.27
31044;BME280;17710;52.520;13.352;2023-08-21T01:48:37;101790.25;;;27.28;65.65
31044;BME280;17710;52.520;13.352;2023-08-21T01:51:03;101784.28;;;27.04;66.65
31044;BME280;17710;52.520;13.352;2023-08-21T01:53:30;101795.22;;;27.23;65.82
31044;BME280;17710;52.520;13.352;2023-08-21T01:55:56;101791.56;;;27.03;66.70
31044;BME280;17710;52.520;13.352;2023-08-21T01:58:24;101798.25;;;27.29;65.54
31044;BME280;17710;52.520;13.352;2023-08-21T02:00:50;101798.75;;;27.14;66.57
31044;BME280;17710;52.520;13.352;2023-08-21T02:03:17;101801.78;;;27.20;66.24
31044;BME280;17710;52.520;13.352;2023-08-21T02:05:43;101796.38;;;27.00;67.13
31044;BME280;17710;52.520;13.352;2023-08-21T02:08:12;101791.09;;;26.98;67.27
31044;BME280;17710;52.520;13.352;2023-08-21T02:10:47;101798.25;;;26.99;67.56
31044;BME280;17710;52.520;13.352;2023-08-21T02:13:13;101789.25;;;26.98;67.40
31044;BME280;17710;52.520;13.352;2023-08-21T02:15:41;101791.16;;;26.87;67.67
31044;BME280;17710;52.520;13.352;2023-08-21T02:18:07;101788.44;;;26.87;67.02
31044;BME280;17710;52.520;13.352;2023-08-21T02:20:34;101793.53;;;27.01;66.30
31044;BME280;17710;52.520;13.352;2023-08-21T02:23:01;101788.06;;;26.91;66.72
31044;BME280;17710;52.520;13.352;2023-08-21T02:25:27;101788.66;;;26.95;66.28
31044;BME280;17710;52.520;13.352;2023-08-21T02:27:53;101792.44;;;26.62;67.67
31044;BME280;17710;52.520;13.352;2023-08-21T02:30:20;101790.72;;;26.61;67.51
31044;BME280;17710;52.520;13.352;2023-08-21T02:32:52;101796.56;;;26.87;66.93
31044;BME280;17710;52.520;13.352;2023-08-21T02:35:18;101804.94;;;26.95;66.08
31044;BME280;17710;52.520;13.352;2023-08-21T02:37:44;101804.50;;;26.79;66.44
31044;BME280;17710;52.520;13.352;2023-08-21T02:40:11;101793.09;;;26.75;66.76
31044;BME280;17710;52.520;13.352;2023-08-21T02:42:37;101800.16;;;26.67;66.82
31044;BME280;17710;52.520;13.352;2023-08-21T02:45:04;101797.66;;;26.75;66.80
31044;BME280;17710;52.520;13.352;2023-08-21T02:47:35;101799.13;;;26.58;67.42
31044;BME280;17710;52.520;13.352;2023-08-21T02:50:05;101798.97;;;26.80;66.60
31044;BME280;17710;52.520;13.352;2023-08-21T02:52:32;101793.75;;;26.88;66.21
31044;BME280;17710;52.520;13.352;2023-08-21T02:54:59;101791.44;;;26.84;66.00
31044;BME280;17710;52.520;13.352;2023-08-21T02:57:26;101794.81;;;26.76;66.57
31044;BME280;17710;52.520;13.352;2023-08-21T02:59:53;101793.09;;;26.96;65.88
31044;BME280;17710;52.520;13.352;2023-08-21T03:02:20;101798.06;;;26.91;65.95
31044;BME280;17710;52.520;13.352;2023-08-21T03:04:47;101799.22;;;26.98;65.85
31044;BME280;17710;52.520;13.352;2023-08-21T03:07:15;101794.00;;;26.85;66.22
31044;BME280;17710;52.520;13.352;2023-08-21T03:09:42;101792.88;;;27.09;65.43
31044;BME280;17710;52.520;13.352;2023-08-21T03:12:08;101792.00;;;27.08;65.49
31044;BME280;17710;52.520;13.352;2023-08-21T03:14:35;101795.91;;;27.25;64.84
31044;BME280;17710;52.520;13.352;2023-08-21T03:17:03;101797.03;;;27.13;64.97
31044;BME280;17710;52.520;13.352;2023-08-21T03:19:29;101792.94;;;27.28;64.71
31044;BME280;17710;52.520;13.352;2023-08-21T03:21:56;101786.84;;;27.05;65.58
31044;BME280;17710;52.520;13.352;2023-08-21T03:24:24;101783.78;;;27.19;65.57
31044;BME280;17710;52.520;13.352;2023-08-21T03:26:50;101786.91;;;27.24;66.07
31044;BME280;17710;52.520;13.352;2023-08-21T03:29:17;101788.53;;;26.96;66.98
31044;BME280;17710;52.520;13.352;2023-08-21T03:31:46;101784.94;;;27.26;65.89
31044;BME280;17710;52.520;13.352;2023-08-21T03:34:13;101783.69;;;27.30;65.73
31044;BME280;17710;52.520;13.352;2023-08-21T03:36:39;101785.66;;;27.28;65.84
31044;BME280;17710;52.520;13.352;2023-08-21T03:39:05;101785.06;;;27.25;65.38
31044;BME280;17710;52.520;13.352;2023-08-21T03:41:33;101788.81;;;27.24;65.21
31044;BME280;17710;52.520;13.352;2023-08-21T03:43:59;101785.66;;;26.98;66.07
31044;BME280;17710;52.520;13.352;2023-08-21T03:46:26;101776.28;;;27.02;65.42
31044;BME280;17710;52.520;13.352;2023-08-21T03:48:52;101786.28;;;27.11;65.07
31044;BME280;17710;52.520;13.352;2023-08-21T03:51:19;101792.25;;;27.05;65.43
31044;BME280;17710;52.520;13.352;2023-08-21T03:53:45;101792.88;;;26.88;65.95
31044;BME280;17710;52.520;13.352;2023-08-21T03:56:11;101794.69;;;26.78;66.60
31044;BME280;17710;52.520;13.352;2023-08-21T03:58:39;101798.06;;;26.91;66.86
31044;BME280;17710;52.520;13.352;2023-08-21T04:01:06;101797.78;;;26.94;66.97
31044;BME280;17710;52.520;13.352;2023-08-21T04:03:32;101811.13;;;26.86;67.28
31044;BME280;17710;52.520;13.352;2023-08-21T04:06:01;101808.25;;;26.78;66.88
31044;BME280;17710;52.520;13.352;2023-08-21T04:08:27;101801.94;;;26.98;65.96
31044;BME280;17710;52.520;13.352;2023-08-21T04:10:54;101806.03;;;27.13;64.85
31044;BME280;17710;52.520;13.352;2023-08-21T04:13:25;101804.94;;;26.95;64.49
31044;BME280;17710;52.520;13.352;2023-08-21T04:15:53;101811.13;;;26.86;64.99
31044;BME280;17710;52.520;13.352;2023-08-21T04:18:20;101811.53;;;27.02;64.09
31044;BME280;17710;52.520;13.352;2023-08-21T04:20:48;101810.69;;;27.02;63.98
31044;BME280;17710;52.520;13.352;2023-08-21T04:23:14;101814.88;;;27.15;63.25
31044;BME280;17710;52.520;13.352;2023-08-21T04:25:41;101819.25;;;27.07;63.99
31044;BME280;17710;52.520;13.352;2023-08-21T04:28:08;101828.06;;;26.99;64.67
31044;BME280;17710;52.520;13.352;2023-08-21T04:30:35;101819.78;;;26.91;64.97
31044;BME280;17710;52.520;13.352;2023-08-21T04:33:03;101828.34;;;26.96;64.47
31044;BME280;17710;52.520;13.352;2023-08-21T04:35:36;101836.94;;;26.80;64.86
31044;BME280;17710;52.520;13.352;2023-08-21T04:38:03;101833.50;;;26.99;64.14
31044;BME280;17710;52.520;13.352;2023-08-21T04:40:29;101838.59;;;26.92;64.34
31044;BME280;17710;52.520;13.352;2023-08-21T04:42:55;101845.28;;;27.09;64.04
31044;BME280;17710;52.520;13.352;2023-08-21T04:45:22;101842.81;;;27.06;64.32
31044;BME280;17710;52.520;13.352;2023-08-21T04:47:48;101833.50;;;26.99;64.57
31044;BME280;17710;52.520;13.352;2023-08-21T04:50:16;101843.69;;;27.07;64.51
31044;BME280;17710;52.520;13.352;2023-08-21T04:52:42;101841.06;;;26.95;65.33
31044;BME280;17710;52.520;13.352;2023-08-21T04:55:09;101844.31;;;26.78;66.26
31044;BME280;17710;52.520;13.352;2023-08-21T04:57:35;101845.66;;;26.84;66.29
31044;BME280;17710;52.520;13.352;2023-08-21T05:00:02;101846.53;;;26.64;68.05
31044;BME280;17710;52.520;13.352;2023-08-21T05:02:29;101842.31;;;26.71;67.84
31044;BME280;17710;52.520;13.352;2023-08-21T05:04:56;101842.56;;;26.68;68.51
31044;BME280;17710;52.520;13.352;2023-08-21T05:07:23;101850.03;;;26.75;67.81
31044;BME280;17710;52.520;13.352;2023-08-21T05:09:51;101844.31;;;26.89;67.20
31044;BME280;17710;52.520;13.352;2023-08-21T05:12:18;101847.09;;;26.88;67.33
31044;BME280;17710;52.520;13.352;2023-08-21T05:14:44;101840.06;;;26.96;67.04
31044;BME280;17710;52.520;13.352;2023-08-21T05:17:11;101847.13;;;27.09;66.73
31044;BME280;17710;52.520;13.352;2023-08-21T05:19:37;101844.41;;;27.09;66.79
31044;BME280;17710;52.520;13.352;2023-08-21T05:22:03;101846.41;;;27.07;66.28
31044;BME280;17710;52.520;13.352;2023-08-21T05:24:31;101848.53;;;27.03;66.15
31044;BME280;17710;52.520;13.352;2023-08-21T05:26:58;101840.69;;;27.40;65.18
31044;BME280;17710;52.520;13.352;2023-08-21T05:29:24;101842.25;;;27.63;63.98
31044;BME280;17710;52.520;13.352;2023-08-21T05:31:51;101840.69;;;27.70;63.83
31044;BME280;17710;52.520;13.352;2023-08-21T05:34:17;101843.44;;;27.80;63.06
31044;BME280;17710;52.520;13.352;2023-08-21T05:36:44;101835.59;;;27.96;62.90
31044;BME280;17710;52.520;13.352;2023-08-21T05:39:10;101832.47;;;28.01;61.99
31044;BME280;17710;52.520;13.352;2023-08-21T05:41:38;101830.50;;;28.32;60.91
31044;BME280;17710;52.520;13.352;2023-08-21T05:44:04;101834.53;;;28.28;60.48
31044;BME280;17710;52.520;13.352;2023-08-21T05:46:31;101839.81;;;28.39;60.28
31044;BME280;17710;52.520;13.352;2023-08-21T05:48:57;101835.91;;;28.70;59.40
31044;BME280;17710;52.520;13.352;2023-08-21T05:51:24;101839.06;;;28.37;59.75
31044;BME280;17710;52.520;13.352;2023-08-21T05:53:50;101841.66;;;28.58;59.34
31044;BME280;17710;52.520;13.352;2023-08-21T05:56:17;101835.06;;;28.50;59.65
31044;BME280;17710;52.520;13.352;2023-08-21T05:58:44;101844.69;;;28.35;59.87
31044;BME280;17710;52.520;13.352;2023-08-21T06:01:11;101847.81;;;28.50;59.90
31044;BME280;17710;52.520;13.352;2023-08-21T06:03:38;101841.94;;;28.54;59.59
31044;BME280;17710;52.520;13.352;2023-08-21T06:06:04;101842.22;;;28.51;59.98
31044;BME280;17710;52.520;13.352;2023-08-21T06:08:31;101842.19;;;28.71;59.27
31044;BME280;17710;52.520;13.352;2023-08-21T06:10:57;101852.53;;;28.67;58.85
31044;BME280;17710;52.520;13.352;2023-08-21T06:13:24;101846.19;;;28.96;57.36
31044;BME280;17710;52.520;13.352;2023-08-21T06:15:55;101843.03;;;29.00;57.41
31044;BME280;17710;52.520;13.352;2023-08-21T06:18:22;101856.19;;;29.05;57.57
31044;BME280;17710;52.520;13.352;2023-08-21T06:20:48;101859.63;;;29.07;57.42
31044;BME280;17710;52.520;13.352;2023-08-21T06:23:18;101865.44;;;28.75;57.80
31044;BME280;17710;52.520;13.352;2023-08-21T06:25:44;101866.94;;;28.97;57.29
31044;BME280;17710;52.520;13.352;2023-08-21T06:28:11;101873.25;;;29.07;57.20
31044;BME280;17710;52.520;13.352;2023-08-21T06:30:38;101879.16;;;28.92;57.73
31044;BME280;17710;52.520;13.352;2023-08-21T06:33:05;101869.06;;;29.12;57.21
31044;BME280;17710;52.520;13.352;2023-08-21T06:35:32;101871.66;;;29.04;57.51
31044;BME280;17710;52.520;13.352;2023-08-21T06:37:58;101879.59;;;28.88;58.84
31044;BME280;17710;52.520;13.352;2023-08-21T06:40:25;101872.53;;;29.05;58.89
31044;BME280;17710;52.520;13.352;2023-08-21T06:42:51;101874.78;;;29.09;58.38
31044;BME280;17710;52.520;13.352;2023-08-21T06:45:18;101876.19;;;29.23;58.02
31044;BME280;17710;52.520;13.352;2023-08-21T06:47:44;101882.91;;;29.28;57.79
31044;BME280;17710;52.520;13.352;2023-08-21T06:50:12;101879.16;;;30.03;55.65
31044;BME280;17710;52.520;13.352;2023-08-21T06:52:39;101875.19;;;30.16;53.86
31044;BME280;17710;52.520;13.352;2023-08-21T06:55:06;101883.38;;;29.98;52.94
31044;BME280;17710;52.520;13.352;2023-08-21T06:57:33;101880.34;;;29.91;53.73
31044;BME280;17710;52.520;13.352;2023-08-21T06:59:59;101882.69;;;29.59;54.47
31044;BME280;17710;52.520;13.352;2023-08-21T07:02:25;101878.28;;;29.48;55.60
31044;BME280;17710;52.520;13.352;2023-08-21T07:04:52;101873.03;;;29.37;54.68
31044;BME280;17710;52.520;13.352;2023-08-21T07:07:20;101873.00;;;29.47;54.35
31044;BME280;17710;52.520;13.352;2023-08-21T07:09:46;101869.41;;;29.73;54.40
31044;BME280;17710;52.520;13.352;2023-08-21T07:12:12;101872.81;;;30.30;50.99
31044;BME280;17710;52.520;13.352;2023-08-21T07:14:39;101873.75;;;30.39;49.20
31044;BME280;17710;52.520;13.352;2023-08-21T07:17:05;101870.66;;;30.52;47.72
31044;BME280;17710;52.520;13.352;2023-08-21T07:19:31;101881.47;;;31.56;45.75
31044;BME280;17710;52.520;13.352;2023-08-21T07:21:58;101893.19;;;31.75;45.40
31044;BME280;17710;52.520;13.352;2023-08-21T07:24:26;101884.91;;;31.07;45.63
31044;BME280;17710;52.520;13.352;2023-08-21T07:26:52;101885.38;;;31.02;46.38
31044;BME280;17710;52.520;13.352;2023-08-21T07:29:19;101892.38;;;31.22;45.32
31044;BME280;17710;52.520;13.352;2023-08-21T07:31:48;101889.06;;;31.11;45.87
31044;BME280;17710;52.520;13.352;2023-08-21T07:34:14;101894.13;;;30.88;46.19
31044;BME280;17710;52.520;13.352;2023-08-21T07:36:43;101893.78;;;31.35;45.83
31044;BME280;17710;52.520;13.352;2023-08-21T07:39:09;101887.28;;;31.27;45.05
31044;BME280;17710;52.520;13.352;2023-08-21T07:41:37;101884.19;;;31.56;44.76
31044;BME280;17710;52.520;13.352;2023-08-21T07:44:03;101890.97;;;32.28;42.99
31044;BME280;17710;52.520;13.352;2023-08-21T07:46:30;101898.47;;;32.26;42.28
31044;BME280;17710;52.520;13.352;2023-08-21T07:48:56;101899.09;;;32.12;42.39
31044;BME280;17710;52.520;13.352;2023-08-21T07:51:23;101896.84;;;31.99;41.17
31044;BME280;17710;52.520;13.352;2023-08-21T07:53:49;101899.53;;;31.91;41.31
31044;BME280;17710;52.520;13.352;2023-08-21T07:56:15;101903.16;;;32.00;41.28
31044;BME280;17710;52.520;13.352;2023-08-21T07:58:43;101893.00;;;31.76;41.66
31044;BME280;17710;52.520;13.352;2023-08-21T08:01:09;101910.63;;;31.82;40.56
31044;BME280;17710;52.520;13.352;2023-08-21T08:03:36;101904.97;;;31.75;40.40
31044;BME280;17710;52.520;13.352;2023-08-21T08:06:03;101901.84;;;31.44;40.27
31044;BME280;17710;52.520;13.352;2023-08-21T08:08:29;101909.69;;;31.65;40.00
31044;BME280;17710;52.520;13.352;2023-08-21T08:11:00;101901.44;;;31.05;40.33
31044;BME280;17710;52.520;13.352;2023-08-21T08:13:27;101900.44;;;31.06;41.32
31044;BME280;17710;52.520;13.352;2023-08-21T08:15:55;101912.31;;;31.49;40.73
31044;BME280;17710;52.520;13.352;2023-08-21T08:18:21;101904.09;;;30.97;40.89
31044;BME280;17710;52.520;13.352;2023-08-21T08:20:47;101909.13;;;30.84;41.34
31044;BME280;17710;52.520;13.352;2023-08-21T08:23:14;101901.91;;;31.01;41.47
31044;BME280;17710;52.520;13.352;2023-08-21T08:25:40;101901.81;;;30.93;41.16
31044;BME280;17710;52.520;13.352;2023-08-21T08:28:06;101903.22;;;30.71;40.99
31044;BME280;17710;52.520;13.352;2023-08-21T08:30:33;101896.66;;;30.64;41.46
31044;BME280;17710;52.520;13.352;2023-08-21T08:33:03;101903.31;;;30.87;40.62
31044;BME280;17710;52.520;13.352;2023-08-21T08:35:29;101904.44;;;31.20;39.62
31044;BME280;17710;52.520;13.352;2023-08-21T08:37:55;101907.75;;;31.32;39.00
31044;BME280;17710;52.520;13.352;2023-08-21T08:40:22;101908.94;;;31.55;36.79
31044;BME280;17710;52.520;13.352;2023-08-21T08:42:48;101901.66;;;31.63;35.19
31044;BME280;17710;52.520;13.352;2023-08-21T08:45:17;101904.16;;;31.91;33.04
31044;BME280;17710;52.520;13.352;2023-08-21T08:47:50;101907.06;;;31.97;31.95
31044;BME280;17710;52.520;13.352;2023-08-21T08:50:18;101904.56;;;31.62;31.65
31044;BME280;17710;52.520;13.352;2023-08-21T08:52:45;101900.59;;;31.98;31.16
31044;BME280;17710;52.520;13.352;2023-08-21T08:55:12;101907.09;;;32.56;29.38
31044;BME280;17710;52.520;13.352;2023-08-21T08:57:39;101906.09;;;32.73;29.16
31044;BME280;17710;52.520;13.352;2023-08-21T09:00:07;101908.97;;;33.04;27.52
31044;BME280;17710;52.520;13.352;2023-08-21T09:02:33;101904.00;;;32.83;27.82
31044;BME280;17710;52.520;13.352;2023-08-21T09:05:00;101898.03;;;32.71;28.58
31044;BME280;17710;52.520;13.352;2023-08-21T09:07:28;101897.50;;;33.00;28.22
31044;BME280;17710;52.520;13.352;2023-08-21T09:09:54;101902.63;;;33.03;27.77
31044;BME280;17710;52.520;13.352;2023-08-21T09:12:20;101897.31;;;33.02;28.17
31044;BME280;17710;52.520;13.352;2023-08-21T09:14:47;101903.31;;;33.13;27.90
31044;BME280;17710;52.520;13.352;2023-08-21T09:17:14;101893.91;;;32.83;28.00
31044;BME280;17710;52.520;13.352;2023-08-21T09:19:41;101899.38;;;33.24;28.22
31044;BME280;17710;52.520;13.352;2023-08-21T09:22:09;101889.78;;;33.28;28.06
31044;BME280;17710;52.520;13.352;2023-08-21T09:24:37;101890.84;;;32.87;28.45
31044;BME280;17710;52.520;13.352;2023-08-21T09:27:03;101889.78;;;33.12;28.38
31044;BME280;17710;52.520;13.352;2023-08-21T09:29:37;101891.19;;;33.00;27.97
31044;BME280;17710;52.520;13.352;2023-08-21T09:32:04;101886.72;;;32.91;27.93
31044;BME280;17710;52.520;13.352;2023-08-21T09:34:33;101885.19;;;32.96;28.34
31044;BME280;17710;52.520;13.352;2023-08-21T09:37:04;101886.94;;;32.81;28.23
31044;BME280;17710;52.520;13.352;2023-08-21T09:39:33;101896.66;;;33.00;28.36
31044;BME280;17710;52.520;13.352;2023-08-21T09:42:01;101894.25;;;33.21;28.63
31044;BME280;17710;52.520;13.352;2023-08-21T09:44:28;101891.78;;;33.42;28.53
31044;BME280;17710;52.520;13.352;2023-08-21T09:46:55;101892.75;;;33.74;28.39
31044;BME280;17710;52.520;13.352;2023-08-21T09:49:22;101888.03;;;33.35;28.24
31044;BME280;17710;52.520;13.352;2023-08-21T09:51:49;101889.72;;;33.44;28.34
31044;BME280;17710;52.520;13.352;2023-08-21T09:54:16;101883.22;;;33.45;28.99
31044;BME280;17710;52.520;13.352;2023-08-21T09:56:43;101887.75;;;33.14;28.98
31044;BME280;17710;52.520;13.352;2023-08-21T09:59:11;101882.28;;;32.90;29.15
31044;BME280;17710;52.520;13.352;2023-08-21T10:01:38;101880.88;;;32.37;30.33
31044;BME280;17710;52.520;13.352;2023-08-21T10:04:06;101880.47;;;32.08;30.76
31044;BME280;17710;52.520;13.352;2023-08-21T10:06:34;101882.25;;;32.33;30.77
31044;BME280;17710;52.520;13.352;2023-08-21T10:09:02;101875.94;;;32.40;31.12
31044;BME280;17710;52.520;13.352;2023-08-21T10:11:29;101872.72;;;32.69;30.11
31044;BME280;17710;52.520;13.352;2023-08-21T10:13:56;101880.59;;;32.80;30.15
31044;BME280;17710;52.520;13.352;2023-08-21T10:16:24;101870.47;;;32.57;29.90
31044;BME280;17710;52.520;13.352;2023-08-21T10:18:51;101874.91;;;32.66;30.05
31044;BME280;17710;52.520;13.352;2023-08-21T10:21:20;101886.03;;;32.64;29.20
31044;BME280;17710;52.520;13.352;2023-08-21T10:23:47;101884.84;;;32.59;29.10
31044;BME280;17710;52.520;13.352;2023-08-21T10:26:14;101880.91;;;32.61;29.59
31044;BME280;17710;52.520;13.352;2023-08-21T10:28:43;101873.75;;;32.68;29.23
31044;BME280;17710;52.520;13.352;2023-08-21T10:31:26;101881.41;;;32.97;28.87
31044;BME280;17710;52.520;13.352;2023-08-21T10:33:53;101884.44;;;33.35;28.92
31044;BME280;17710;52.520;13.352;2023-08-21T10:39:28;101880.25;;;32.75;28.95
31044;BME280;17710;52.520;13.352;2023-08-21T10:41:57;101881.09;;;32.84;29.60
31044;BME280;17710;52.520;13.352;2023-08-21T10:44:34;101875.41;;;32.37;28.96
31044;BME280;17710;52.520;13.352;2023-08-21T10:47:16;101877.81;;;32.56;29.37
31044;BME280;17710;52.520;13.352;2023-08-21T10:49:44;101880.41;;;32.90;28.80
31044;BME280;17710;52.520;13.352;2023-08-21T10:52:10;101878.84;;;32.96;28.39
31044;BME280;17710;52.520;13.352;2023-08-21T10:54:47;101877.53;;;32.75;28.52
31044;BME280;17710;52.520;13.352;2023-08-21T10:57:15;101880.03;;;33.26;28.34
31044;BME280;17710;52.520;13.352;2023-08-21T10:59:55;101879.22;;;32.93;28.86
31044;BME280;17710;52.520;13.352;2023-08-21T11:02:24;101881.25;;;33.07;28.50
31044;BME280;17710;52.520;13.352;2023-08-21T11:04:51;101885.66;;;33.32;28.54
31044;BME280;17710;52.520;13.352;2023-08-21T11:07:18;101887.31;;;33.49;27.98
31044;BME280;17710;52.520;13.352;2023-08-21T11:09:45;101890.63;;;33.84;27.99
31044;BME280;17710;52.520;13.352;2023-08-21T11:12:12;101895.41;;;33.90;28.57
31044;BME280;17710;52.520;13.352;2023-08-21T11:14:40;101882.97;;;33.71;28.50
31044;BME280;17710;52.520;13.352;2023-08-21T11:17:07;101888.84;;;33.60;28.56
31044;BME280;17710;52.520;13.352;2023-08-21T11:19:36;101887.72;;;33.22;28.40
31044;BME280;17710;52.520;13.352;2023-08-21T11:22:03;101886.41;;;33.73;28.36
31044;BME280;17710;52.520;13.352;2023-08-21T11:24:31;101889.78;;;33.28;28.38
31044;BME280;17710;52.520;13.352;2023-08-21T11:27:05;101888.44;;;32.83;28.55
31044;BME280;17710;52.520;13.352;2023-08-21T11:29:32;101881.09;;;33.00;28.12
31044;BME280;17710;52.520;13.352;2023-08-21T11:32:03;101877.63;;;33.31;27.66
31044;BME280;17710;52.520;13.352;2023-08-21T11:34:32;101885.84;;;33.22;27.12
31044;BME280;17710;52.520;13.352;2023-08-21T11:37:00;101888.59;;;33.70;27.49
31044;BME280;17710;52.520;13.352;2023-08-21T11:39:27;101881.41;;;33.69;26.62
31044;BME280;17710;52.520;13.352;2023-08-21T11:42:09;101891.31;;;33.86;26.86
31044;BME280;17710;52.520;13.352;2023-08-21T11:44:40;101880.78;;;33.97;25.85
31044;BME280;17710;52.520;13.352;2023-08-21T11:47:06;101882.38;;;33.92;26.10
31044;BME280;17710;52.520;13.352;2023-08-21T11:49:36;101885.63;;;34.26;26.13
31044;BME280;17710;52.520;13.352;2023-08-21T11:52:05;101878.22;;;33.96;25.59
31044;BME280;17710;52.520;13.352;2023-08-21T11:54:33;101877.19;;;34.28;25.60
31044;BME280;17710;52.520;13.352;2023-08-21T11:57:04;101881.84;;;33.88;25.89
31044;BME280;17710;52.520;13.352;2023-08-21T11:59:30;101881.50;;;33.91;26.04
31044;BME280;17710;52.520;13.352;2023-08-21T12:01:59;101891.94;;;33.96;26.54
31044;BME280;17710;52.520;13.352;2023-08-21T12:04:26;101883.38;;;33.99;26.32
31044;BME280;17710;52.520;13.352;2023-08-21T12:06:53;101880.94;;;33.57;26.42
31044;BME280;17710;52.520;13.352;2023-08-21T12:09:21;101881.84;;;33.41;27.72
31044;BME280;17710;52.520;13.352;2023-08-21T12:11:47;101872.66;;;34.12;27.60
31044;BME280;17710;52.520;13.352;2023-08-21T12:14:14;101879.28;;;34.26;26.93
31044;BME280;17710;52.520;13.352;2023-08-21T12:16:42;101880.50;;;34.46;27.08
31044;BME280;17710;52.520;13.352;2023-08-21T12:19:08;101876.38;;;34.19;26.91
31044;BME280;17710;52.520;13.352;2023-08-21T12:21:37;101878.28;;;34.19;27.36
31044;BME280;17710;52.520;13.352;2023-08-21T12:24:04;101877.41;;;34.26;27.60
31044;BME280;17710;52.520;13.352;2023-08-21T12:26:32;101878.03;;;34.28;27.73
31044;BME280;17710;52.520;13.352;2023-08-21T12:29:00;101873.72;;;34.03;27.70
31044;BME280;17710;52.520;13.352;2023-08-21T12:31:27;101872.44;;;33.91;28.51
31044;BME280;17710;52.520;13.352;2023-08-21T12:33:53;101866.00;;;33.68;28.25
31044;BME280;17710;52.520;13.352;2023-08-21T12:36:20;101863.31;;;33.59;28.84
31044;BME280;17710;52.520;13.352;2023-08-21T12:38:46;101868.38;;;33.32;27.70
31044;BME280;17710;52.520;13.352;2023-08-21T12:41:13;101877.28;;;33.26;28.16
31044;BME280;17710;52.520;13.352;2023-08-21T12:43:41;101880.66;;;33.44;27.16